Terminal Aerodrome Forecast
Issued by NWS

Home | Current Version | Previous Version | Text Only | Print | Product List | Glossary On
Versions: 1 2 3 4 5 6 7 8 9 10 11 12 13 14 15 16 17 18
000
FTUS43 KIND 211727
TAFLAF
TAF
KLAF 211727Z 2118/2218 13005KT 6SM -SHRA SCT020 OVC080
     FM212000 18007KT P6SM VCTS BKN025CB OVC080
     FM220400 VRB03KT P6SM BKN200
     FM220900 24005KT P6SM BKN025
     FM221300 28005KT P6SM BKN015=

USA.gov is the U.S. government's official web portal to all federal, state and local government web resources and services.